Home   Weather   USA   Dunn   Past weeks
Flag for USA

Past Weather in Dunn, North Carolina, USA — Yesterday and Last 2 Weeks

Currently: 36 °F. Clear. (Weather station: Harnett County Airport, USA). See more current weather

Past Weather in Dunn — Graph

°F

Dunn Temperature Yesterday

Maximum temperature yesterday: 61 °F (at 5:40 pm)
Minimum temperature yesterday: 42 °F (at 11:40 pm)
Average temperature yesterday: 51 °F

High & Low Weather Summary for the Past Weeks

 TemperatureHumidityPressure
High89 °F (Apr 15, 3:20 pm)100% (Apr 20, 4:10 am)30.26 "Hg (Apr 20, 4:10 am)
Low36 °F (Apr 23, 5:30 am)22% (Apr 13, 4:50 pm)29.51 "Hg (Apr 11, 8:30 pm)
Average65 °F68%30.02 "Hg
* Reported Apr 8 5:00 am — Apr 23 5:30 am, Dunn. Weather by CustomWeather, © 2024

Note: Actual official high and low records may vary slightly from our data, if they occured in-between our weather recording intervals... More about our weather records

Dunn Weather History for the Previous 24 Hours

Scroll right to see more
 ConditionsComfort  
Time TempWeatherWind HumidityBarometerVisibility
5:30 am
Tue, Apr 23
36 °FClear.No wind99%30.21 "Hg10 mi
4:50 am37 °FClear.No wind100%30.20 "Hg10 mi
4:30 am38 °FClear.No wind98%30.20 "Hg10 mi
4:10 am37 °FClear.No wind100%30.20 "Hg10 mi
3:30 am38 °FClear.No wind100%30.19 "Hg10 mi
3:10 am37 °FClear.No wind100%30.19 "Hg10 mi
2:50 am38 °FClear.No wind99%30.20 "Hg10 mi
2:30 am38 °FClear.No wind100%30.20 "Hg10 mi
2:10 am39 °FClear.No wind98%30.20 "Hg10 mi
1:30 am39 °FClear.No wind98%30.20 "Hg10 mi
1:20 am39 °FClear.No wind98%30.20 "Hg10 mi
1:00 am41 °FClear.No wind98%30.20 "Hg10 mi
12:40 am40 °FClear.No wind99%30.19 "Hg10 mi
12:10 am40 °FClear.No wind96%30.19 "Hg10 mi
11:40 pm
Mon, Apr 22
42 °FClear.No wind94%30.19 "Hg10 mi
11:30 pm42 °FClear.No wind95%30.19 "Hg10 mi
11:00 pm42 °FClear.No wind93%30.18 "Hg10 mi
10:10 pm45 °FClear.No wind86%30.17 "Hg10 mi
9:50 pm45 °FClear.3 mph84%30.17 "Hg10 mi
9:20 pm46 °FClear.No wind83%30.16 "Hg10 mi
8:50 pm48 °FClear.No wind74%30.16 "Hg10 mi
8:30 pm51 °FClear.3 mph59%30.15 "Hg10 mi
8:00 pm55 °FClear.5 mph44%30.14 "Hg10 mi
7:30 pm58 °FSunny.7 mph38%30.13 "Hg10 mi
7:20 pm58 °FSunny.9 mph36%30.13 "Hg10 mi
6:30 pm60 °FSunny.6 mph33%30.12 "Hg10 mi
6:10 pm61 °FSunny.12 mph33%30.12 "Hg10 mi
5:40 pm61 °FSunny.14 mph32%30.12 "Hg10 mi
5:00 pm60 °FSunny.8 mph31%30.11 "Hg10 mi
4:10 pm61 °FSunny.13 mph34%30.11 "Hg10 mi
3:30 pm60 °FScattered clouds.10 mph32%30.12 "Hg10 mi
3:00 pm58 °FScattered clouds.8 mph37%30.13 "Hg10 mi
2:20 pm58 °FSunny.9 mph36%30.14 "Hg10 mi
2:10 pm58 °FSunny.12 mph37%30.15 "Hg10 mi
1:30 pm57 °FScattered clouds.9 mph40%30.16 "Hg10 mi
1:00 pm57 °FSunny.13 mph39%30.16 "Hg10 mi
12:20 pm56 °FSunny.10 mph43%30.18 "Hg10 mi
12:00 pm54 °FSunny.6 mph46%30.18 "Hg10 mi
11:30 am53 °FSunny.7 mph50%30.18 "Hg7 mi
11:00 am51 °FSunny.9 mph52%30.18 "Hg10 mi
10:20 am50 °FScattered clouds.14 mph52%30.18 "Hg10 mi
9:30 am49 °FScattered clouds.12 mph66%30.15 "Hg10 mi
9:00 am48 °FSunny.14 mph70%30.14 "Hg10 mi
8:10 am47 °FSunny.9 mph80%30.12 "Hg10 mi
6:50 am46 °FSunny.7 mph93%30.08 "Hg10 mi
6:30 am46 °FClear.5 mph96%30.08 "Hg10 mi
6:20 am46 °FClear.5 mph94%30.07 "Hg10 mi
6:10 am46 °FClear.5 mph94%30.08 "Hg10 mi
Weather by CustomWeather, © 2024

See weather overview